Time;durP1;ratioP1;P1;durP2;ratioP2;P2;SDS_P1;SDS_P2;PMS_P1;PMS_P2;Temp;Humidity;BMP_temperature;BMP_pressure;BME280_temperature;BME280_humidity;BME280_pressure;Samples;Min_cycle;Max_cycle;Signal;HPM_P1;HPM_P2
2023/03/12 00:01:36;;;;;;;5.20;2.20;;;0.30;99.90;;;;;;4991196;28;20460;-66
2023/03/12 00:04:02;;;;;;;;;;;0.30;99.90;;;;;;4995465;28;20419;-67
2023/03/12 00:06:27;;;;;;;6.63;2.78;;;0.30;99.90;;;;;;4977020;28;19984;-66
2023/03/12 00:08:53;;;;;;;4.97;2.50;;;0.20;99.90;;;;;;4991310;28;20136;-67
2023/03/12 00:11:20;;;;;;;4.23;2.30;;;0.20;99.90;;;;;;4971243;28;20054;-67
2023/03/12 00:13:53;;;;;;;6.43;2.60;;;0.30;99.90;;;;;;4989769;28;20076;-67
2023/03/12 00:16:19;;;;;;;5.53;2.58;;;0.30;99.90;;;;;;4986747;28;20140;-67
2023/03/12 00:18:47;;;;;;;5.07;2.28;;;0.30;99.90;;;;;;4963728;28;20079;-67
2023/03/12 00:21:13;;;;;;;8.93;2.65;;;0.30;99.90;;;;;;4991353;28;20132;-67
2023/03/12 00:23:39;;;;;;;8.20;2.53;;;0.30;99.90;;;;;;4976611;28;20046;-67
2023/03/12 00:26:08;;;;;;;5.87;2.57;;;0.30;99.90;;;;;;4977954;28;20057;-66
2023/03/12 00:28:34;;;;;;;4.85;2.58;;;0.20;99.90;;;;;;5000241;28;20511;-67
2023/03/12 00:31:01;;;;;;;4.53;2.25;;;0.20;99.90;;;;;;4980134;28;20060;-67
2023/03/12 00:33:28;;;;;;;4.82;2.20;;;0.20;99.90;;;;;;4985913;28;20545;-67
2023/03/12 00:35:54;;;;;;;4.57;2.25;;;0.20;99.90;;;;;;4994106;28;20049;-66
2023/03/12 00:38:19;;;;;;;4.45;2.20;;;0.20;99.90;;;;;;5000499;28;20057;-67
2023/03/12 00:40:45;;;;;;;5.80;2.73;;;0.20;99.90;;;;;;4994936;28;20476;-69
2023/03/12 00:43:11;;;;;;;6.30;2.47;;;0.30;99.90;;;;;;4977912;28;20502;-67
2023/03/12 00:45:36;;;;;;;3.43;2.20;;;0.30;99.90;;;;;;4994164;28;20357;-67
2023/03/12 00:48:02;;;;;;;4.50;2.13;;;0.30;99.90;;;;;;4997291;28;20041;-66
2023/03/12 00:50:28;;;;;;;4.43;2.27;;;0.30;99.90;;;;;;4977503;28;20256;-67
2023/03/12 00:52:53;;;;;;;4.40;2.07;;;0.30;99.90;;;;;;4998572;28;20033;-67
2023/03/12 00:55:19;;;;;;;4.07;2.17;;;0.30;99.90;;;;;;4976693;28;20057;-66
2023/03/12 00:57:45;;;;;;;4.33;2.00;;;0.30;99.90;;;;;;4980266;28;20492;-67
2023/03/12 01:00:11;;;;;;;5.47;2.33;;;0.30;99.90;;;;;;4996857;28;20056;-67
2023/03/12 01:02:38;;;;;;;8.23;2.78;;;0.30;99.90;;;;;;4994602;28;20037;-67
2023/03/12 01:05:07;;;;;;;2.72;1.67;;;0.30;99.90;;;;;;4978117;28;20533;-67
2023/03/12 01:07:34;;;;;;;5.95;2.28;;;0.30;99.90;;;;;;4973724;28;20042;-66
2023/03/12 01:09:59;;;;;;;3.95;1.92;;;0.30;99.90;;;;;;4972100;28;20123;-67
2023/03/12 01:12:25;;;;;;;4.43;2.23;;;0.30;99.90;;;;;;4981323;28;20452;-67
2023/03/12 01:14:51;;;;;;;3.73;1.90;;;0.30;99.90;;;;;;4957287;28;20334;-67
2023/03/12 01:17:17;;;;;;;2.97;1.90;;;0.30;99.90;;;;;;4971908;28;20053;-66
2023/03/12 01:19:42;;;;;;;5.13;2.27;;;0.20;99.90;;;;;;4974380;28;20060;-66
2023/03/12 01:22:08;;;;;;;4.40;2.40;;;0.30;99.90;;;;;;4985200;28;20046;-67
2023/03/12 01:24:34;;;;;;;5.47;2.27;;;0.20;99.90;;;;;;4972331;28;20054;-67
2023/03/12 01:26:59;;;;;;;8.17;2.77;;;0.30;99.90;;;;;;4994382;28;20279;-67
2023/03/12 01:29:25;;;;;;;7.03;2.10;;;0.30;99.90;;;;;;4975925;28;20085;-67
2023/03/12 01:31:51;;;;;;;6.87;2.17;;;0.30;99.90;;;;;;4969225;28;20379;-67
2023/03/12 01:34:17;;;;;;;6.82;2.25;;;0.40;99.90;;;;;;4978411;28;20057;-67
2023/03/12 01:36:43;;;;;;;5.50;2.00;;;0.40;99.90;;;;;;4993151;28;20664;-67
2023/03/12 01:39:10;;;;;;;4.68;1.88;;;0.40;99.90;;;;;;4991414;28;20149;-67
2023/03/12 01:41:36;;;;;;;4.47;2.00;;;0.40;99.90;;;;;;4976681;28;20085;-67
2023/03/12 01:44:03;;;;;;;5.97;2.25;;;0.50;99.90;;;;;;4973571;28;20038;-67
2023/03/12 01:46:46;;;;;;;4.90;2.25;;;0.50;99.90;;;;;;4990359;28;20116;-66
2023/03/12 01:49:33;;;;;;;6.63;2.00;;;0.50;99.90;;;;;;4988317;28;20046;-67
2023/03/12 01:52:03;;;;;;;8.52;2.42;;;0.60;99.90;;;;;;4975726;28;20150;-67
2023/03/12 01:54:48;;;;;;;6.07;2.42;;;0.60;99.90;;;;;;4994665;28;20580;-67
2023/03/12 01:57:18;;;;;;;5.28;2.20;;;0.60;99.90;;;;;;4995411;28;20046;-66
2023/03/12 01:59:49;;;;;;;6.68;2.65;;;0.60;99.90;;;;;;4974778;28;20211;-66
2023/03/12 02:02:15;;;;;;;4.63;2.20;;;0.60;99.90;;;;;;4974588;28;20135;-67
2023/03/12 02:04:44;;;;;;;4.07;2.50;;;0.70;99.90;;;;;;4992062;28;20080;-67
2023/03/12 02:07:12;;;;;;;6.05;2.72;;;0.70;99.90;;;;;;4989016;28;20085;-67
2023/03/12 02:09:41;;;;;;;5.00;2.25;;;0.70;99.90;;;;;;4973053;28;20053;-67
2023/03/12 02:12:08;;;;;;;4.90;2.70;;;0.70;99.90;;;;;;4997352;28;20030;-67
2023/03/12 02:14:35;;;;;;;7.50;2.58;;;0.70;99.90;;;;;;4995553;28;21510;-67
2023/03/12 02:17:00;;;;;;;4.38;2.53;;;0.70;99.90;;;;;;4974064;28;20046;-67
2023/03/12 02:19:56;;;;;;;6.83;2.60;;;0.80;99.90;;;;;;4995802;28;20066;-67
2023/03/12 02:22:23;;;;;;;6.00;2.63;;;0.80;99.90;;;;;;4985991;28;20037;-67
2023/03/12 02:25:12;;;;;;;6.65;2.90;;;0.80;99.90;;;;;;4992407;28;20044;-66
2023/03/12 02:27:38;;;;;;;5.95;2.50;;;0.80;99.90;;;;;;4991951;28;20152;-67
2023/03/12 02:30:05;;;;;;;5.10;2.47;;;0.80;99.90;;;;;;4991430;28;20441;-67
2023/03/12 02:32:38;;;;;;;7.15;3.03;;;0.80;99.90;;;;;;4991085;28;20042;-67
2023/03/12 02:35:05;;;;;;;7.13;3.80;;;0.80;99.90;;;;;;4979871;28;20305;-67
2023/03/12 02:37:31;;;;;;;5.53;3.28;;;0.90;99.90;;;;;;4980379;28;20492;-67
2023/03/12 02:40:14;;;;;;;8.57;4.13;;;0.90;99.90;;;;;;4974146;28;20044;-67
2023/03/12 02:42:39;;;;;;;4.82;2.78;;;0.90;99.90;;;;;;4972494;28;20314;-67
2023/03/12 02:45:05;;;;;;;8.30;3.43;;;0.90;99.90;;;;;;4995960;28;20038;-67
2023/03/12 02:47:31;;;;;;;11.88;3.30;;;0.90;99.90;;;;;;4977241;28;20045;-67
2023/03/12 02:49:57;;;;;;;6.33;3.43;;;0.90;99.90;;;;;;4997527;28;20050;-67
2023/03/12 02:52:22;;;;;;;7.90;2.87;;;1.00;99.90;;;;;;4999059;28;20030;-67
2023/03/12 02:54:48;;;;;;;5.83;3.00;;;1.00;99.90;;;;;;5000440;28;20435;-67
2023/03/12 02:57:13;;;;;;;5.80;3.20;;;1.00;99.90;;;;;;4988456;28;20041;-67
2023/03/12 02:59:39;;;;;;;11.27;3.00;;;1.00;99.90;;;;;;4997866;28;20058;-67
2023/03/12 03:02:05;;;;;;;4.73;2.40;;;1.00;99.90;;;;;;4962205;28;20053;-67
2023/03/12 03:04:33;;;;;;;4.82;2.70;;;1.00;99.90;;;;;;4996893;28;20388;-67
2023/03/12 03:06:59;;;;;;;5.13;2.50;;;1.00;99.90;;;;;;4998585;28;20050;-67
2023/03/12 03:09:25;;;;;;;4.18;2.63;;;1.00;99.90;;;;;;4975040;28;20046;-67
2023/03/12 03:11:51;;;;;;;3.47;2.00;;;1.00;99.90;;;;;;4973525;28;20247;-67
2023/03/12 03:14:18;;;;;;;5.07;2.33;;;1.00;99.90;;;;;;4980203;28;20068;-67
2023/03/12 03:16:43;;;;;;;4.55;2.35;;;1.00;99.90;;;;;;4980909;28;20500;-67
2023/03/12 03:19:10;;;;;;;3.57;2.13;;;1.00;99.90;;;;;;4998266;28;20125;-67
2023/03/12 03:21:36;;;;;;;4.88;2.10;;;1.10;99.90;;;;;;4992162;28;20042;-67
2023/03/12 03:24:01;;;;;;;4.60;2.13;;;1.10;99.90;;;;;;4995549;28;20064;-67
2023/03/12 03:26:27;;;;;;;7.75;2.60;;;1.00;99.90;;;;;;4997249;28;20199;-67
2023/03/12 03:28:53;;;;;;;3.73;2.10;;;1.00;99.90;;;;;;4996591;28;20080;-67
2023/03/12 03:31:19;;;;;;;6.22;2.30;;;1.10;99.90;;;;;;4994183;28;20399;-67
2023/03/12 03:33:46;;;;;;;4.30;2.08;;;1.10;99.90;;;;;;4972498;28;20057;-68
2023/03/12 03:36:15;;;;;;;4.40;2.50;;;1.10;99.90;;;;;;5019877;22;20057;-69
2023/03/12 03:38:43;;;;;;;4.35;2.50;;;1.10;99.90;;;;;;5001358;28;20080;-69
2023/03/12 03:41:08;;;;;;;4.57;2.17;;;1.10;99.90;;;;;;5004286;28;20422;-69
2023/03/12 03:43:34;;;;;;;5.70;2.10;;;1.10;99.90;;;;;;4998869;28;20339;-70
2023/03/12 03:46:02;;;;;;;4.33;2.00;;;1.10;99.90;;;;;;5003656;28;20045;-69
2023/03/12 03:48:28;;;;;;;4.90;2.00;;;1.10;99.90;;;;;;4998749;28;20045;-70
2023/03/12 03:50:58;;;;;;;5.27;2.87;;;1.20;99.90;;;;;;5005390;28;20052;-69
2023/03/12 03:53:23;;;;;;;7.35;2.38;;;1.10;99.90;;;;;;4999150;28;20290;-70
2023/03/12 03:55:49;;;;;;;5.10;2.20;;;1.10;99.90;;;;;;5007041;28;20041;-69
2023/03/12 03:58:15;;;;;;;6.73;2.60;;;1.10;99.90;;;;;;5018604;28;20139;-69
2023/03/12 04:00:46;;;;;;;4.90;2.57;;;1.10;99.90;;;;;;5001740;28;20045;-69
2023/03/12 04:03:12;;;;;;;5.47;2.22;;;1.20;99.90;;;;;;5005393;28;20069;-70
2023/03/12 04:05:39;;;;;;;6.32;2.50;;;1.10;99.90;;;;;;5003619;28;20112;-69
2023/03/12 04:08:05;;;;;;;7.18;2.40;;;1.10;99.90;;;;;;5022784;28;20093;-69
2023/03/12 04:10:30;;;;;;;5.40;2.22;;;1.20;99.90;;;;;;5000395;28;20042;-68
2023/03/12 04:12:56;;;;;;;3.97;2.47;;;1.20;99.90;;;;;;5010747;28;20491;-70
2023/03/12 04:15:22;;;;;;;4.28;2.03;;;1.20;99.90;;;;;;5000563;28;20060;-69
2023/03/12 04:17:48;;;;;;;5.93;2.13;;;1.20;99.90;;;;;;5013706;28;20049;-69
2023/03/12 04:20:14;;;;;;;6.33;2.40;;;1.20;99.90;;;;;;5013146;28;20042;-69
2023/03/12 04:22:39;;;;;;;5.33;2.63;;;1.20;99.90;;;;;;5014856;28;20522;-69
2023/03/12 04:25:06;;;;;;;5.37;2.37;;;1.20;99.90;;;;;;5001672;28;20049;-70
2023/03/12 04:27:33;;;;;;;5.70;2.22;;;1.20;99.90;;;;;;5017847;28;20137;-70
2023/03/12 04:29:58;;;;;;;3.67;2.13;;;1.20;99.90;;;;;;5001531;28;20073;-69
2023/03/12 04:32:24;;;;;;;4.00;2.33;;;1.20;99.90;;;;;;4998152;28;20071;-70
2023/03/12 04:34:50;;;;;;;4.23;2.33;;;1.20;99.90;;;;;;4999073;28;20487;-68
2023/03/12 04:37:15;;;;;;;5.50;2.83;;;1.30;99.90;;;;;;5002630;28;20801;-71
2023/03/12 04:39:42;;;;;;;5.30;2.47;;;1.20;99.90;;;;;;4999714;28;20076;-69
2023/03/12 04:42:08;;;;;;;6.45;2.60;;;1.30;99.90;;;;;;5001164;28;20124;-72
2023/03/12 04:44:35;;;;;;;5.63;2.45;;;1.30;99.90;;;;;;4998062;28;20141;-73
2023/03/12 04:47:00;;;;;;;8.38;2.10;;;1.30;99.90;;;;;;5001243;28;20511;-68
2023/03/12 04:49:26;;;;;;;4.77;2.77;;;1.30;99.90;;;;;;5002045;28;20092;-70
2023/03/12 04:51:52;;;;;;;6.07;2.45;;;1.30;99.90;;;;;;5017255;28;20049;-69
2023/03/12 04:54:19;;;;;;;6.63;2.67;;;1.30;99.90;;;;;;5014475;28;20109;-69
2023/03/12 04:56:46;;;;;;;5.53;2.50;;;1.30;99.90;;;;;;5021715;28;20498;-69
2023/03/12 04:59:12;;;;;;;4.60;2.60;;;1.40;99.90;;;;;;5005468;28;20049;-70
2023/03/12 05:01:38;;;;;;;7.30;1.85;;;1.40;99.90;;;;;;5013995;28;20495;-71
2023/03/12 05:04:05;;;;;;;5.57;2.20;;;1.40;99.90;;;;;;5000416;28;20124;-69
2023/03/12 05:06:30;;;;;;;9.90;1.83;;;1.40;99.90;;;;;;4986523;28;20053;-70
2023/03/12 05:08:56;;;;;;;4.53;2.25;;;1.40;99.90;;;;;;5003100;28;20232;-69
2023/03/12 05:11:22;;;;;;;4.32;2.75;;;1.40;99.90;;;;;;4994132;28;20707;-70
2023/03/12 05:13:48;;;;;;;6.88;1.83;;;1.40;99.90;;;;;;5015953;28;20068;-69
2023/03/12 05:16:15;;;;;;;4.77;2.00;;;1.40;99.90;;;;;;5017030;28;20459;-70
2023/03/12 05:18:41;;;;;;;4.80;2.15;;;1.40;99.90;;;;;;5016761;28;20118;-70
2023/03/12 05:21:11;;;;;;;6.38;2.30;;;1.40;99.90;;;;;;4997426;28;20064;-70
2023/03/12 05:23:38;;;;;;;6.13;2.20;;;1.40;99.90;;;;;;5000829;28;20088;-70
2023/03/12 05:26:05;;;;;;;;;;;1.40;99.90;;;;;;5018430;28;20045;-69
2023/03/12 05:28:31;;;;;;;8.27;2.37;;;1.40;99.90;;;;;;4997599;28;20393;-70
2023/03/12 05:30:58;;;;;;;4.78;2.42;;;1.40;99.90;;;;;;5000795;28;20419;-69
2023/03/12 05:33:25;;;;;;;6.25;2.88;;;1.40;99.90;;;;;;5021190;28;20641;-69
2023/03/12 05:35:51;;;;;;;4.75;2.85;;;1.40;99.90;;;;;;5002676;28;20045;-70
2023/03/12 05:38:17;;;;;;;3.97;2.60;;;1.40;99.90;;;;;;5016430;28;20099;-70
2023/03/12 05:40:49;;;;;;;7.37;2.10;;;1.40;99.90;;;;;;5014581;28;20403;-68
2023/03/12 05:43:14;;;;;;;5.57;2.13;;;1.40;99.90;;;;;;5020071;28;20335;-69
2023/03/12 05:45:40;;;;;;;9.57;2.73;;;1.40;99.90;;;;;;5016244;28;20194;-70
2023/03/12 05:48:06;;;;;;;4.43;2.73;;;1.40;99.90;;;;;;5004581;28;20440;-69
2023/03/12 05:50:32;;;;;;;3.60;2.07;;;1.40;99.90;;;;;;5010565;28;20152;-70
2023/03/12 05:52:57;;;;;;;5.27;2.57;;;1.40;99.90;;;;;;5000020;28;20419;-69
2023/03/12 05:55:23;;;;;;;7.97;2.07;;;1.50;99.90;;;;;;4997057;28;20057;-69
2023/03/12 05:57:49;;;;;;;5.40;2.37;;;1.50;99.90;;;;;;5003109;28;20160;-70
2023/03/12 06:00:15;;;;;;;5.10;2.27;;;1.50;99.90;;;;;;4999886;28;20439;-69
2023/03/12 06:02:41;;;;;;;4.18;2.42;;;1.50;99.90;;;;;;4986134;28;20407;-69
2023/03/12 06:05:09;;;;;;;5.20;2.60;;;1.50;99.90;;;;;;5003136;28;20120;-68
2023/03/12 06:07:34;;;;;;;4.25;2.17;;;1.50;99.90;;;;;;5000574;28;20457;-69
2023/03/12 06:10:00;;;;;;;5.47;2.40;;;1.50;99.90;;;;;;5016721;28;20044;-69
2023/03/12 06:12:26;;;;;;;4.53;2.60;;;1.50;99.90;;;;;;5002682;28;20049;-70
2023/03/12 06:14:51;;;;;;;7.80;2.27;;;1.50;99.90;;;;;;5002635;28;20207;-70
2023/03/12 06:17:17;;;;;;;5.80;2.57;;;1.50;99.90;;;;;;5016400;28;20133;-69
2023/03/12 06:19:43;;;;;;;6.03;2.67;;;1.50;99.90;;;;;;5002247;28;20049;-69
2023/03/12 06:22:08;;;;;;;4.70;2.50;;;1.50;99.90;;;;;;4991605;28;20056;-69
2023/03/12 06:24:34;;;;;;;9.07;2.70;;;1.60;99.90;;;;;;5000629;28;20503;-69
2023/03/12 06:27:00;;;;;;;5.40;2.43;;;1.60;99.90;;;;;;5004246;28;20064;-69
2023/03/12 06:29:25;;;;;;;9.23;2.77;;;1.60;99.90;;;;;;5024250;28;20064;-69
2023/03/12 06:31:51;;;;;;;5.03;2.57;;;1.60;99.90;;;;;;5003665;28;20545;-69
2023/03/12 06:34:17;;;;;;;5.23;2.93;;;1.60;99.90;;;;;;5004112;28;20049;-70
2023/03/12 06:36:43;;;;;;;5.63;2.57;;;1.60;99.90;;;;;;5006571;28;20099;-69
2023/03/12 06:39:09;;;;;;;5.60;2.60;;;1.60;99.90;;;;;;5019122;28;20464;-70
2023/03/12 06:41:35;;;;;;;7.20;2.60;;;1.60;99.90;;;;;;5009001;28;20077;-70
2023/03/12 06:44:04;;;;;;;5.63;2.20;;;1.70;99.90;;;;;;5020979;28;20126;-69
2023/03/12 06:46:30;;;;;;;6.75;2.70;;;1.70;99.90;;;;;;5000091;28;20045;-69
2023/03/12 06:48:56;;;;;;;5.35;2.88;;;1.60;99.90;;;;;;5002876;28;20045;-69
2023/03/12 06:51:22;;;;;;;8.07;3.30;;;1.70;99.90;;;;;;5003472;28;20457;-69
2023/03/12 06:53:47;;;;;;;4.90;2.67;;;1.60;99.90;;;;;;5017935;28;20295;-70
2023/03/12 06:56:13;;;;;;;4.30;2.57;;;1.60;99.90;;;;;;5006393;28;20415;-70
2023/03/12 06:58:39;;;;;;;8.80;3.10;;;1.60;99.90;;;;;;5004365;28;20075;-70
2023/03/12 07:01:05;;;;;;;5.50;2.95;;;1.60;99.90;;;;;;5002921;28;20053;-69
2023/03/12 07:03:31;;;;;;;6.30;2.67;;;1.60;99.90;;;;;;5016897;28;20072;-70
2023/03/12 07:05:57;;;;;;;4.23;2.47;;;1.50;99.90;;;;;;5004853;28;20282;-69
2023/03/12 07:08:24;;;;;;;5.30;2.85;;;1.50;99.90;;;;;;4989422;28;20217;-69
2023/03/12 07:10:50;;;;;;;3.70;2.65;;;1.50;99.90;;;;;;5004080;28;20048;-70
2023/03/12 07:13:15;;;;;;;4.83;2.80;;;1.50;99.90;;;;;;5022436;28;20398;-69
2023/03/12 07:15:41;;;;;;;8.03;3.10;;;1.50;99.90;;;;;;5022835;28;20056;-70
2023/03/12 07:18:10;;;;;;;5.13;3.23;;;1.50;99.90;;;;;;5015488;28;20042;-68
2023/03/12 07:20:38;;;;;;;7.00;2.58;;;1.50;99.90;;;;;;5022310;28;20465;-69
2023/03/12 07:23:03;;;;;;;7.13;3.03;;;1.50;99.90;;;;;;5014871;28;20116;-70
2023/03/12 07:25:29;;;;;;;5.77;3.17;;;1.50;99.90;;;;;;4997729;28;20053;-69
2023/03/12 07:27:55;;;;;;;5.53;3.17;;;1.50;99.90;;;;;;4997918;28;20041;-70
2023/03/12 07:30:21;;;;;;;6.93;2.70;;;1.50;99.90;;;;;;5018487;28;20585;-69
2023/03/12 07:32:46;;;;;;;13.02;3.85;;;1.50;99.90;;;;;;5004313;28;20038;-68
2023/03/12 07:35:12;;;;;;;7.90;2.87;;;1.50;99.90;;;;;;5004192;28;20107;-69
2023/03/12 07:37:38;;;;;;;8.37;3.23;;;1.50;99.90;;;;;;5021325;28;20120;-70
2023/03/12 07:40:06;;;;;;;7.97;3.70;;;1.50;99.90;;;;;;4984734;28;20087;-70
2023/03/12 07:42:32;;;;;;;5.63;3.15;;;1.50;99.90;;;;;;5002167;28;20033;-71
2023/03/12 07:44:58;;;;;;;8.88;3.30;;;1.50;99.90;;;;;;5006908;28;20471;-70
2023/03/12 07:47:24;;;;;;;10.07;3.90;;;1.50;99.90;;;;;;5002516;28;20107;-69
2023/03/12 07:49:49;;;;;;;8.87;3.70;;;1.50;99.90;;;;;;5014570;28;20490;-69
2023/03/12 07:52:16;;;;;;;7.00;3.57;;;1.60;99.90;;;;;;5007137;28;20137;-69
2023/03/12 07:54:42;;;;;;;6.57;3.50;;;1.60;99.90;;;;;;5010073;28;20540;-70
2023/03/12 07:57:08;;;;;;;6.63;3.60;;;1.60;99.90;;;;;;5020948;28;20128;-69
2023/03/12 07:59:33;;;;;;;5.93;3.27;;;1.60;99.90;;;;;;5017669;28;21466;-68
2023/03/12 08:01:59;;;;;;;9.40;4.23;;;1.60;99.90;;;;;;4994456;28;20045;-69
2023/03/12 08:04:25;;;;;;;6.47;3.53;;;1.60;99.90;;;;;;5017033;28;20361;-69
2023/03/12 08:06:50;;;;;;;7.30;4.20;;;1.70;99.90;;;;;;5004179;28;20041;-70
2023/03/12 08:09:16;;;;;;;7.77;3.60;;;1.70;99.90;;;;;;5002167;28;20049;-69
2023/03/12 08:11:41;;;;;;;7.43;3.93;;;1.70;99.90;;;;;;5003176;28;20411;-69
2023/03/12 08:14:07;;;;;;;7.13;3.73;;;1.70;99.90;;;;;;5005079;28;20041;-70
2023/03/12 08:16:33;;;;;;;9.87;3.93;;;1.60;99.90;;;;;;5006977;28;20384;-69
2023/03/12 08:18:58;;;;;;;7.90;3.50;;;1.70;99.90;;;;;;5017909;28;20679;-69
2023/03/12 08:21:24;;;;;;;5.03;3.70;;;1.70;99.90;;;;;;5014596;28;20455;-69
2023/03/12 08:23:50;;;;;;;9.67;3.13;;;1.70;99.90;;;;;;4999712;28;20140;-69
2023/03/12 08:26:15;;;;;;;8.37;4.00;;;1.70;99.90;;;;;;5003877;28;20470;-70
2023/03/12 08:28:41;;;;;;;6.67;4.20;;;1.70;99.90;;;;;;4999240;28;20080;-69
2023/03/12 08:31:08;;;;;;;10.17;3.53;;;1.70;99.90;;;;;;5017850;28;20099;-69
2023/03/12 08:33:34;;;;;;;6.35;3.58;;;1.70;99.90;;;;;;5002731;28;20485;-70
2023/03/12 08:36:00;;;;;;;7.63;3.70;;;1.80;99.90;;;;;;5020497;28;20045;-70
2023/03/12 08:38:26;;;;;;;8.77;4.23;;;1.80;99.90;;;;;;5011917;28;20414;-69
2023/03/12 08:40:56;;;;;;;10.70;4.68;;;1.80;99.90;;;;;;5012700;28;20510;-70
2023/03/12 08:43:22;;;;;;;8.07;4.40;;;1.80;99.90;;;;;;5000336;28;20205;-71
2023/03/12 08:45:59;;;;;;;6.93;4.13;;;1.80;99.90;;;;;;4999259;28;20462;-70
2023/03/12 08:48:26;;;;;;;6.63;3.75;;;1.80;99.90;;;;;;4999774;28;20132;-68
2023/03/12 08:50:53;;;;;;;;;;;1.90;99.90;;;;;;5012753;28;20466;-70
2023/03/12 08:53:19;;;;;;;10.02;4.22;;;1.90;99.90;;;;;;5012503;28;20409;-69
2023/03/12 08:55:45;;;;;;;8.13;4.03;;;1.90;99.90;;;;;;5001623;28;20069;-70
2023/03/12 08:58:11;;;;;;;7.40;4.23;;;2.00;99.90;;;;;;5022222;28;20401;-69
2023/03/12 09:00:36;;;;;;;10.70;3.87;;;2.00;99.90;;;;;;5004108;28;20124;-69
2023/03/12 09:03:02;;;;;;;9.47;3.70;;;2.10;99.90;;;;;;5000882;28;20476;-70
2023/03/12 09:05:30;;;;;;;7.50;3.80;;;2.10;99.90;;;;;;4999953;28;20037;-69
2023/03/12 09:07:56;;;;;;;9.82;4.40;;;2.10;99.90;;;;;;5021919;28;20287;-69
2023/03/12 09:10:22;;;;;;;8.20;3.92;;;2.10;99.90;;;;;;5006158;28;20033;-69
2023/03/12 09:12:48;;;;;;;7.07;3.30;;;2.10;99.90;;;;;;5000121;28;20510;-70
2023/03/12 09:15:13;;;;;;;6.40;4.20;;;2.10;99.90;;;;;;5002726;28;20434;-70
2023/03/12 09:17:40;;;;;;;9.57;3.30;;;2.10;99.90;;;;;;5021410;28;20064;-69
2023/03/12 09:20:12;;;;;;;6.97;3.17;;;2.10;99.90;;;;;;5000490;28;20495;-69
2023/03/12 09:22:38;;;;;;;8.90;3.70;;;2.10;99.90;;;;;;5013437;28;20296;-71
2023/03/12 09:25:07;;;;;;;6.13;3.55;;;2.20;99.90;;;;;;5002701;28;20375;-71
2023/03/12 09:27:44;;;;;;;6.35;3.47;;;2.20;99.90;;;;;;5001994;28;20155;-71
2023/03/12 09:30:17;;;;;;;6.20;3.92;;;2.20;99.90;;;;;;4994891;28;20442;-71
2023/03/12 09:32:44;;;;;;;6.28;3.78;;;2.20;99.90;;;;;;5001157;28;20414;-70
2023/03/12 09:35:10;;;;;;;6.40;3.72;;;2.20;99.90;;;;;;5001358;28;20457;-70
2023/03/12 09:37:36;;;;;;;5.70;4.00;;;2.30;99.90;;;;;;5000058;28;20068;-69
2023/03/12 09:40:06;;;;;;;5.37;3.23;;;2.30;99.90;;;;;;5019447;28;20045;-69
2023/03/12 09:42:52;;;;;;;6.03;3.53;;;2.30;99.90;;;;;;5004190;28;20111;-70
2023/03/12 09:45:22;;;;;;;8.48;3.67;;;2.30;99.90;;;;;;4998125;28;20119;-70
2023/03/12 09:47:51;;;;;;;7.13;3.85;;;2.30;99.90;;;;;;5000281;28;20073;-72
2023/03/12 09:50:32;;;;;;;5.88;3.10;;;2.30;99.90;;;;;;5018602;28;20051;-71
2023/03/12 09:53:20;;;;;;;7.53;3.53;;;2.30;99.90;;;;;;5001310;28;20131;-70
2023/03/12 09:55:49;;;;;;;6.50;3.97;;;2.40;99.90;;;;;;5013457;28;20165;-71
2023/03/12 09:58:31;;;;;;;8.35;4.22;;;2.40;99.90;;;;;;5017961;28;20050;-70
2023/03/12 10:01:25;;;;;;;4.57;3.05;;;2.50;99.90;;;;;;5003945;28;20045;-70
2023/03/12 10:04:15;;;;;;;5.13;3.45;;;2.50;99.90;;;;;;5025398;28;20042;-70
2023/03/12 10:06:53;;;;;;;6.20;3.33;;;2.50;99.90;;;;;;5004259;28;20288;-70
2023/03/12 10:09:35;;;;;;;7.65;3.33;;;2.60;99.90;;;;;;5004595;28;20047;-70
2023/03/12 10:12:18;;;;;;;6.97;3.50;;;2.60;99.90;;;;;;5004653;28;20217;-72
2023/03/12 10:15:41;;;;;;;6.97;3.33;;;2.60;99.90;;;;;;5002573;28;20064;-70
2023/03/12 10:18:30;;;;;;;5.75;2.92;;;2.70;99.90;;;;;;4977654;28;20767;-69
2023/03/12 10:21:34;;;;;;;6.00;3.40;;;2.70;99.90;;;;;;4970072;28;20068;-71
2023/03/12 10:24:08;;;;;;;6.35;3.17;;;2.80;99.90;;;;;;4995313;28;20050;-70
2023/03/12 10:26:38;;;;;;;6.43;3.85;;;2.80;99.90;;;;;;5020773;28;20156;-72
2023/03/12 10:29:21;;;;;;;9.02;4.03;;;2.80;99.90;;;;;;5004944;28;20468;-72
2023/03/12 10:31:52;;;;;;;6.40;3.70;;;2.90;99.90;;;;;;5016599;28;20116;-70
2023/03/12 10:34:25;;;;;;;7.32;3.78;;;2.90;99.90;;;;;;5001646;28;20041;-72
2023/03/12 10:36:54;;;;;;;6.30;4.20;;;3.00;99.90;;;;;;5007830;28;20069;-70
2023/03/12 10:39:20;;;;;;;6.00;3.95;;;3.10;99.90;;;;;;5005860;28;20042;-71
2023/03/12 10:41:47;;;;;;;10.03;4.27;;;3.10;99.90;;;;;;5005426;28;20114;-70
2023/03/12 10:44:20;;;;;;;6.20;3.63;;;3.20;99.90;;;;;;4996451;28;20085;-70
2023/03/12 10:46:58;;;;;;;7.28;4.35;;;3.20;99.90;;;;;;5006974;28;20046;-71
2023/03/12 10:49:27;;;;;;;7.15;3.92;;;3.30;99.90;;;;;;4997057;28;20052;-71
2023/03/12 10:51:55;;;;;;;10.32;4.25;;;3.30;99.90;;;;;;4999209;28;20045;-72
2023/03/12 10:54:39;;;;;;;10.18;4.65;;;3.30;99.90;;;;;;5005957;28;20645;-70
2023/03/12 10:57:07;;;;;;;7.32;4.80;;;3.40;99.90;;;;;;5003036;28;20084;-71
2023/03/12 10:59:35;;;;;;;8.88;4.30;;;3.50;99.90;;;;;;5005469;28;20147;-70
2023/03/12 11:02:22;;;;;;;9.93;4.70;;;3.50;99.90;;;;;;5003093;28;20518;-72
2023/03/12 11:04:52;;;;;;;7.75;4.53;;;3.70;99.90;;;;;;5014907;28;20045;-70
2023/03/12 11:07:25;;;;;;;10.23;4.90;;;3.70;99.90;;;;;;5017506;28;20045;-71
2023/03/12 11:10:15;;;;;;;10.05;4.88;;;3.80;99.90;;;;;;4977454;28;20049;-71
2023/03/12 11:13:10;;;;;;;8.40;4.35;;;3.90;99.90;;;;;;5002819;28;20064;-69
2023/03/12 11:15:41;;;;;;;10.55;4.80;;;4.00;99.90;;;;;;5001512;28;20422;-71
2023/03/12 11:18:17;;;;;;;9.52;4.40;;;4.00;99.90;;;;;;5001115;28;20052;-68
2023/03/12 11:20:43;;;;;;;9.65;4.82;;;4.10;99.90;;;;;;5005911;28;20084;-69
2023/03/12 11:23:15;;;;;;;9.17;4.43;;;4.10;99.90;;;;;;4993592;28;20399;-70
2023/03/12 11:25:41;;;;;;;11.30;4.97;;;4.20;99.90;;;;;;5000528;28;20064;-69
2023/03/12 11:28:19;;;;;;;6.63;4.40;;;4.20;99.90;;;;;;5003955;28;20117;-69
2023/03/12 11:30:46;;;;;;;8.45;4.95;;;4.20;99.90;;;;;;5006098;28;20095;-69
2023/03/12 11:33:12;;;;;;;9.95;4.80;;;4.30;99.90;;;;;;5006981;28;20273;-70
2023/03/12 11:36:21;;;;;;;7.07;4.50;;;4.40;99.90;;;;;;5015273;28;20342;-69
2023/03/12 11:38:55;;;;;;;7.18;4.35;;;4.50;99.90;;;;;;4997517;28;20052;-71
2023/03/12 11:41:30;;;;;;;9.63;5.32;;;4.60;99.90;;;;;;5005799;28;20041;-69
2023/03/12 11:44:24;;;;;;;8.68;5.25;;;4.70;99.90;;;;;;4999971;28;20057;-69
2023/03/12 11:47:08;;;;;;;11.15;5.13;;;4.80;99.90;;;;;;5014585;28;20051;-70
2023/03/12 11:49:45;;;;;;;9.50;5.50;;;4.90;99.90;;;;;;4987922;28;20608;-70
2023/03/12 11:52:39;;;;;;;11.30;5.80;;;5.00;99.90;;;;;;4993428;28;20038;-69
2023/03/12 11:55:26;;;;;;;8.60;5.63;;;5.00;99.90;;;;;;5014045;28;20374;-69
2023/03/12 11:58:36;;;;;;;10.15;5.47;;;5.10;99.90;;;;;;4994562;28;20515;-69
2023/03/12 12:01:20;;;;;;;8.80;5.10;;;5.20;99.90;;;;;;4966734;28;20140;-70
2023/03/12 12:03:58;;;;;;;11.15;5.57;;;5.20;99.90;;;;;;4995690;28;20359;-72
2023/03/12 12:06:43;;;;;;;10.95;5.20;;;5.30;99.90;;;;;;4997633;28;20077;-71
2023/03/12 12:09:27;;;;;;;9.77;5.35;;;5.40;99.90;;;;;;4993362;28;20399;-70
2023/03/12 12:12:20;;;;;;;10.73;5.78;;;5.50;99.90;;;;;;4996312;28;20077;-70
2023/03/12 12:15:13;;;;;;;12.48;6.13;;;5.60;99.90;;;;;;4995787;28;20064;-69
2023/03/12 12:18:00;;;;;;;12.35;6.07;;;5.70;99.90;;;;;;4979552;28;20053;-70
2023/03/12 12:20:36;;;;;;;15.90;6.78;;;5.80;99.90;;;;;;4998131;28;20045;-70
2023/03/12 12:23:13;;;;;;;16.02;6.05;;;5.90;99.90;;;;;;4990914;28;20176;-71
2023/03/12 12:25:39;;;;;;;11.50;6.10;;;6.10;99.90;;;;;;4991620;28;20084;-70
2023/03/12 12:28:14;;;;;;;10.85;6.72;;;6.20;99.90;;;;;;4999692;28;20153;-71
2023/03/12 12:31:00;;;;;;;15.65;6.03;;;6.30;99.90;;;;;;4993812;28;20144;-70
2023/03/12 12:34:00;;;;;;;10.13;5.35;;;6.50;99.90;;;;;;4997719;28;20049;-70
2023/03/12 12:36:31;;;;;;;22.70;5.65;;;6.70;99.90;;;;;;5007194;28;20423;-70
2023/03/12 12:39:29;;;;;;;13.65;5.68;;;6.80;99.90;;;;;;5001749;28;20176;-69
2023/03/12 12:42:01;;;;;;;14.68;5.68;;;7.00;99.90;;;;;;5000876;28;20144;-70
2023/03/12 12:44:33;;;;;;;12.82;5.45;;;7.00;99.90;;;;;;4986807;28;20463;-69
2023/03/12 12:47:04;;;;;;;17.35;5.60;;;7.10;99.90;;;;;;5012556;28;20497;-69
2023/03/12 12:49:49;;;;;;;17.75;5.10;;;7.20;99.90;;;;;;5008124;28;20529;-69
2023/03/12 12:52:20;;;;;;;17.33;4.63;;;7.40;99.90;;;;;;4989362;28;20446;-68
2023/03/12 12:54:54;;;;;;;18.20;5.03;;;7.50;99.90;;;;;;4992844;28;20052;-70
2023/03/12 12:57:38;;;;;;;21.33;4.63;;;7.60;99.90;;;;;;5006592;28;20468;-70
2023/03/12 13:00:21;;;;;;;18.98;4.75;;;7.60;99.90;;;;;;4991521;28;20402;-70
2023/03/12 13:02:48;;;;;;;11.00;4.15;;;7.70;99.90;;;;;;4995452;28;20041;-70
2023/03/12 13:05:27;;;;;;;14.25;3.67;;;7.80;99.90;;;;;;5015038;28;20130;-70
2023/03/12 13:07:53;;;;;;;13.43;3.03;;;8.00;99.90;;;;;;5011777;28;20049;-68
2023/03/12 13:10:31;;;;;;;14.55;3.78;;;8.10;99.90;;;;;;4989151;28;20038;-68